sensor_id;sensor_type;location;lat;lon;timestamp;pressure;altitude;pressure_sealevel;temperature;humidity
65190;BME280;51777;53.570;9.984;2023-03-20T00:02:06;101393.09;;;9.91;100.00
65190;BME280;51777;53.570;9.984;2023-03-20T00:04:32;101389.00;;;9.88;100.00
65190;BME280;51777;53.570;9.984;2023-03-20T00:06:58;101397.31;;;9.92;100.00
65190;BME280;51777;53.570;9.984;2023-03-20T00:09:23;101403.34;;;9.92;100.00
65190;BME280;51777;53.570;9.984;2023-03-20T00:11:52;101408.25;;;9.95;100.00
65190;BME280;51777;53.570;9.984;2023-03-20T00:14:21;101405.44;;;9.87;100.00
65190;BME280;51777;53.570;9.984;2023-03-20T00:16:49;101403.47;;;9.59;100.00
65190;BME280;51777;53.570;9.984;2023-03-20T00:19:23;101403.25;;;9.51;100.00
65190;BME280;51777;53.570;9.984;2023-03-20T00:21:51;101406.50;;;9.53;100.00
65190;BME280;51777;53.570;9.984;2023-03-20T00:24:17;101392.91;;;9.51;100.00
65190;BME280;51777;53.570;9.984;2023-03-20T00:26:44;101390.38;;;9.28;100.00
65190;BME280;51777;53.570;9.984;2023-03-20T00:29:22;101388.84;;;9.37;100.00
65190;BME280;51777;53.570;9.984;2023-03-20T00:31:48;101392.03;;;9.29;100.00
65190;BME280;51777;53.570;9.984;2023-03-20T00:34:15;101389.13;;;9.23;100.00
65190;BME280;51777;53.570;9.984;2023-03-20T00:36:41;101385.47;;;9.25;100.00
65190;BME280;51777;53.570;9.984;2023-03-20T00:39:07;101385.59;;;9.35;100.00
65190;BME280;51777;53.570;9.984;2023-03-20T00:41:56;101384.13;;;9.42;100.00
65190;BME280;51777;53.570;9.984;2023-03-20T00:44:29;101381.22;;;9.47;100.00
65190;BME280;51777;53.570;9.984;2023-03-20T00:47:02;101382.59;;;9.51;100.00
65190;BME280;51777;53.570;9.984;2023-03-20T00:49:31;101381.53;;;9.53;100.00
65190;BME280;51777;53.570;9.984;2023-03-20T00:51:58;101382.63;;;9.39;100.00
65190;BME280;51777;53.570;9.984;2023-03-20T00:54:25;101377.94;;;9.45;100.00
65190;BME280;51777;53.570;9.984;2023-03-20T00:59:19;101375.53;;;9.53;100.00
65190;BME280;51777;53.570;9.984;2023-03-20T01:01:45;101379.06;;;9.52;100.00
65190;BME280;51777;53.570;9.984;2023-03-20T01:04:13;101378.50;;;9.48;100.00
65190;BME280;51777;53.570;9.984;2023-03-20T01:06:39;101381.22;;;9.47;100.00
65190;BME280;51777;53.570;9.984;2023-03-20T01:09:04;101382.00;;;9.58;100.00
65190;BME280;51777;53.570;9.984;2023-03-20T01:11:30;101380.22;;;9.59;100.00
65190;BME280;51777;53.570;9.984;2023-03-20T01:13:56;101379.53;;;9.57;100.00
65190;BME280;51777;53.570;9.984;2023-03-20T01:16:23;101382.94;;;9.57;100.00
65190;BME280;51777;53.570;9.984;2023-03-20T01:18:50;101387.28;;;9.57;100.00
65190;BME280;51777;53.570;9.984;2023-03-20T01:21:17;101392.63;;;9.65;100.00
65190;BME280;51777;53.570;9.984;2023-03-20T01:23:43;101392.50;;;9.66;100.00
65190;BME280;51777;53.570;9.984;2023-03-20T01:28:45;101385.34;;;9.70;100.00
65190;BME280;51777;53.570;9.984;2023-03-20T01:31:13;101390.28;;;9.62;100.00
65190;BME280;51777;53.570;9.984;2023-03-20T01:33:38;101393.41;;;9.45;100.00
65190;BME280;51777;53.570;9.984;2023-03-20T01:36:04;101389.50;;;9.50;100.00
65190;BME280;51777;53.570;9.984;2023-03-20T01:38:29;101389.06;;;9.45;100.00
65190;BME280;51777;53.570;9.984;2023-03-20T01:41:16;101390.22;;;9.52;100.00
65190;BME280;51777;53.570;9.984;2023-03-20T01:43:43;101397.41;;;9.37;100.00
65190;BME280;51777;53.570;9.984;2023-03-20T01:48:56;101392.75;;;9.31;100.00
65190;BME280;51777;53.570;9.984;2023-03-20T01:51:27;101391.19;;;9.40;100.00
65190;BME280;51777;53.570;9.984;2023-03-20T01:54:00;101388.97;;;9.35;100.00
65190;BME280;51777;53.570;9.984;2023-03-20T01:56:29;101383.81;;;9.35;100.00
65190;BME280;51777;53.570;9.984;2023-03-20T01:59:06;101392.50;;;9.34;100.00
65190;BME280;51777;53.570;9.984;2023-03-20T02:01:34;101391.31;;;9.38;100.00
65190;BME280;51777;53.570;9.984;2023-03-20T02:04:01;101391.31;;;9.38;100.00
65190;BME280;51777;53.570;9.984;2023-03-20T02:06:26;101386.66;;;9.32;100.00
65190;BME280;51777;53.570;9.984;2023-03-20T02:08:53;101386.88;;;9.29;100.00
65190;BME280;51777;53.570;9.984;2023-03-20T02:11:20;101389.22;;;9.32;100.00
65190;BME280;51777;53.570;9.984;2023-03-20T02:13:49;101382.78;;;9.27;100.00
65190;BME280;51777;53.570;9.984;2023-03-20T02:16:16;101382.44;;;9.31;100.00
65190;BME280;51777;53.570;9.984;2023-03-20T02:18:43;101389.66;;;9.37;100.00
65190;BME280;51777;53.570;9.984;2023-03-20T02:41:14;101378.66;;;9.35;100.00
65190;BME280;51777;53.570;9.984;2023-03-20T02:43:37;101384.78;;;9.23;100.00
65190;BME280;51777;53.570;9.984;2023-03-20T02:46:42;101377.50;;;9.17;100.00
65190;BME280;51777;53.570;9.984;2023-03-20T02:49:48;101381.03;;;9.16;100.00
65190;BME280;51777;53.570;9.984;2023-03-20T02:58:21;101381.91;;;9.05;100.00
65190;BME280;51777;53.570;9.984;2023-03-20T03:03:45;101386.56;;;9.11;100.00
65190;BME280;51777;53.570;9.984;2023-03-20T03:06:34;101390.09;;;9.10;100.00
65190;BME280;51777;53.570;9.984;2023-03-20T03:09:13;101389.41;;;9.08;100.00
65190;BME280;51777;53.570;9.984;2023-03-20T03:11:44;101382.47;;;9.09;100.00
65190;BME280;51777;53.570;9.984;2023-03-20T03:16:52;101384.72;;;8.91;100.00
65190;BME280;51777;53.570;9.984;2023-03-20T03:19:20;101373.56;;;8.91;100.00
65190;BME280;51777;53.570;9.984;2023-03-20T03:21:47;101373.00;;;8.87;100.00
65190;BME280;51777;53.570;9.984;2023-03-20T03:24:37;101366.06;;;8.88;100.00
65190;BME280;51777;53.570;9.984;2023-03-20T03:27:09;101372.19;;;8.87;100.00
65190;BME280;51777;53.570;9.984;2023-03-20T03:29:37;101359.53;;;8.83;100.00
65190;BME280;51777;53.570;9.984;2023-03-20T03:32:05;101358.59;;;8.73;100.00
65190;BME280;51777;53.570;9.984;2023-03-20T03:34:33;101358.72;;;8.72;100.00
65190;BME280;51777;53.570;9.984;2023-03-20T03:37:16;101353.56;;;8.72;100.00
65190;BME280;51777;53.570;9.984;2023-03-20T03:39:52;101357.41;;;8.77;100.00
65190;BME280;51777;53.570;9.984;2023-03-20T03:42:31;101352.00;;;8.80;100.00
65190;BME280;51777;53.570;9.984;2023-03-20T03:47:42;101354.00;;;8.77;100.00
65190;BME280;51777;53.570;9.984;2023-03-20T03:50:19;101355.19;;;8.84;100.00
65190;BME280;51777;53.570;9.984;2023-03-20T03:52:48;101353.69;;;8.81;100.00
65190;BME280;51777;53.570;9.984;2023-03-20T03:55:18;101352.84;;;8.81;100.00
65190;BME280;51777;53.570;9.984;2023-03-20T03:57:52;101351.19;;;8.80;100.00
65190;BME280;51777;53.570;9.984;2023-03-20T04:00:22;101352.72;;;8.82;100.00
65190;BME280;51777;53.570;9.984;2023-03-20T04:02:53;101350.47;;;8.89;100.00
65190;BME280;51777;53.570;9.984;2023-03-20T04:05:20;101359.72;;;8.92;100.00
65190;BME280;51777;53.570;9.984;2023-03-20T04:07:51;101360.59;;;8.81;100.00
65190;BME280;51777;53.570;9.984;2023-03-20T04:10:17;101362.94;;;8.84;100.00
65190;BME280;51777;53.570;9.984;2023-03-20T04:12:43;101356.00;;;8.85;100.00
65190;BME280;51777;53.570;9.984;2023-03-20T04:15:11;101359.75;;;8.80;100.00
65190;BME280;51777;53.570;9.984;2023-03-20T04:17:37;101353.69;;;8.81;100.00
65190;BME280;51777;53.570;9.984;2023-03-20T04:20:03;101349.44;;;8.80;100.00
65190;BME280;51777;53.570;9.984;2023-03-20T04:22:28;101345.81;;;8.72;100.00
65190;BME280;51777;53.570;9.984;2023-03-20T04:24:54;101351.81;;;8.72;100.00
65190;BME280;51777;53.570;9.984;2023-03-20T04:27:20;101348.41;;;8.72;100.00
65190;BME280;51777;53.570;9.984;2023-03-20T04:29:45;101357.41;;;8.77;100.00
65190;BME280;51777;53.570;9.984;2023-03-20T04:32:11;101344.06;;;8.72;100.00
65190;BME280;51777;53.570;9.984;2023-03-20T04:34:37;101344.41;;;8.79;100.00
65190;BME280;51777;53.570;9.984;2023-03-20T04:37:02;101349.34;;;8.82;100.00
65190;BME280;51777;53.570;9.984;2023-03-20T04:39:29;101346.78;;;8.71;100.00
65190;BME280;51777;53.570;9.984;2023-03-20T04:41:55;101348.16;;;8.75;100.00
65190;BME280;51777;53.570;9.984;2023-03-20T04:44:21;101347.81;;;8.46;100.00
65190;BME280;51777;53.570;9.984;2023-03-20T04:46:46;101345.38;;;8.44;100.00
65190;BME280;51777;53.570;9.984;2023-03-20T04:49:11;101339.16;;;8.36;100.00
65190;BME280;51777;53.570;9.984;2023-03-20T04:51:37;101349.16;;;8.28;100.00
65190;BME280;51777;53.570;9.984;2023-03-20T04:54:02;101349.66;;;8.21;100.00
65190;BME280;51777;53.570;9.984;2023-03-20T04:56:28;101349.84;;;8.18;100.00
65190;BME280;51777;53.570;9.984;2023-03-20T04:58:53;101344.13;;;8.15;100.00
65190;BME280;51777;53.570;9.984;2023-03-20T05:01:19;101340.84;;;8.13;100.00
65190;BME280;51777;53.570;9.984;2023-03-20T05:03:44;101348.44;;;8.14;100.00
65190;BME280;51777;53.570;9.984;2023-03-20T05:06:12;101339.78;;;8.15;100.00
65190;BME280;51777;53.570;9.984;2023-03-20T05:08:37;101347.19;;;8.20;100.00
65190;BME280;51777;53.570;9.984;2023-03-20T05:11:02;101339.81;;;8.27;100.00
65190;BME280;51777;53.570;9.984;2023-03-20T05:13:28;101340.19;;;8.33;100.00
65190;BME280;51777;53.570;9.984;2023-03-20T05:15:53;101339.16;;;8.36;100.00
65190;BME280;51777;53.570;9.984;2023-03-20T05:18:19;101354.94;;;8.31;100.00
65190;BME280;51777;53.570;9.984;2023-03-20T05:20:44;101351.31;;;8.34;100.00
65190;BME280;51777;53.570;9.984;2023-03-20T05:23:10;101355.31;;;8.38;100.00
65190;BME280;51777;53.570;9.984;2023-03-20T05:25:35;101355.97;;;8.29;100.00
65190;BME280;51777;53.570;9.984;2023-03-20T05:28:00;101355.63;;;8.33;100.00
65190;BME280;51777;53.570;9.984;2023-03-20T05:30:26;101358.78;;;8.25;100.00
65190;BME280;51777;53.570;9.984;2023-03-20T05:32:52;101352.19;;;8.10;100.00
65190;BME280;51777;53.570;9.984;2023-03-20T05:35:18;101359.56;;;8.15;100.00
65190;BME280;51777;53.570;9.984;2023-03-20T05:37:44;101366.88;;;8.21;100.00
65190;BME280;51777;53.570;9.984;2023-03-20T05:40:14;101365.19;;;8.09;100.00
65190;BME280;51777;53.570;9.984;2023-03-20T05:42:40;101377.97;;;8.10;100.00
65190;BME280;51777;53.570;9.984;2023-03-20T05:45:06;101372.00;;;8.10;100.00
65190;BME280;51777;53.570;9.984;2023-03-20T05:47:31;101377.97;;;8.10;100.00
65190;BME280;51777;53.570;9.984;2023-03-20T05:49:57;101375.50;;;8.09;100.00
65190;BME280;51777;53.570;9.984;2023-03-20T05:52:22;101376.16;;;8.00;100.00
65190;BME280;51777;53.570;9.984;2023-03-20T05:54:48;101391.16;;;8.06;100.00
65190;BME280;51777;53.570;9.984;2023-03-20T05:57:14;101386.50;;;8.11;100.00
65190;BME280;51777;53.570;9.984;2023-03-20T05:59:40;101384.94;;;7.97;100.00
65190;BME280;51777;53.570;9.984;2023-03-20T06:02:05;101385.25;;;7.92;100.00
65190;BME280;51777;53.570;9.984;2023-03-20T06:04:31;101385.91;;;8.07;100.00
65190;BME280;51777;53.570;9.984;2023-03-20T06:06:56;101388.25;;;8.10;100.00
65190;BME280;51777;53.570;9.984;2023-03-20T06:09:22;101381.81;;;8.16;100.00
65190;BME280;51777;53.570;9.984;2023-03-20T06:11:47;101383.25;;;8.20;100.00
65190;BME280;51777;53.570;9.984;2023-03-20T06:14:13;101383.34;;;8.18;100.00
65190;BME280;51777;53.570;9.984;2023-03-20T06:16:38;101389.91;;;8.11;100.00
65190;BME280;51777;53.570;9.984;2023-03-20T06:19:04;101386.75;;;8.08;100.00
65190;BME280;51777;53.570;9.984;2023-03-20T06:21:29;101395.88;;;8.12;100.00
65190;BME280;51777;53.570;9.984;2023-03-20T06:23:55;101394.13;;;8.12;100.00
65190;BME280;51777;53.570;9.984;2023-03-20T06:26:22;101384.28;;;8.17;100.00
65190;BME280;51777;53.570;9.984;2023-03-20T06:28:47;101391.56;;;8.23;100.00
65190;BME280;51777;53.570;9.984;2023-03-20T06:31:13;101391.31;;;8.15;100.00
65190;BME280;51777;53.570;9.984;2023-03-20T06:33:38;101390.03;;;8.21;100.00
65190;BME280;51777;53.570;9.984;2023-03-20T06:36:04;101395.53;;;8.28;100.00
65190;BME280;51777;53.570;9.984;2023-03-20T06:38:30;101389.00;;;8.23;100.00
65190;BME280;51777;53.570;9.984;2023-03-20T06:40:55;101392.47;;;8.11;100.00
65190;BME280;51777;53.570;9.984;2023-03-20T06:43:23;101383.59;;;8.27;100.00
65190;BME280;51777;53.570;9.984;2023-03-20T06:45:49;101393.38;;;8.34;100.00
65190;BME280;51777;53.570;9.984;2023-03-20T06:48:14;101393.50;;;8.44;100.00
65190;BME280;51777;53.570;9.984;2023-03-20T06:50:46;101391.63;;;8.46;100.00
65190;BME280;51777;53.570;9.984;2023-03-20T06:53:12;101397.13;;;8.41;100.00
65190;BME280;51777;53.570;9.984;2023-03-20T06:55:37;101396.47;;;8.27;100.00
65190;BME280;51777;53.570;9.984;2023-03-20T06:58:02;101403.56;;;8.36;100.00
65190;BME280;51777;53.570;9.984;2023-03-20T07:00:28;101401.44;;;8.41;100.00
65190;BME280;51777;53.570;9.984;2023-03-20T07:02:53;101402.28;;;8.41;100.00
65190;BME280;51777;53.570;9.984;2023-03-20T07:05:19;101403.22;;;8.51;100.00
65190;BME280;51777;53.570;9.984;2023-03-20T07:07:45;101410.84;;;8.53;100.00
65190;BME280;51777;53.570;9.984;2023-03-20T07:10:11;101411.78;;;8.63;100.00
65190;BME280;51777;53.570;9.984;2023-03-20T07:12:37;101417.88;;;8.62;100.00
65190;BME280;51777;53.570;9.984;2023-03-20T07:15:02;101406.75;;;8.73;100.00
65190;BME280;51777;53.570;9.984;2023-03-20T07:17:28;101420.22;;;8.88;100.00
65190;BME280;51777;53.570;9.984;2023-03-20T07:19:53;101412.03;;;8.71;100.00
65190;BME280;51777;53.570;9.984;2023-03-20T07:22:21;101413.78;;;8.60;100.00
65190;BME280;51777;53.570;9.984;2023-03-20T07:24:48;101423.84;;;8.51;100.00
65190;BME280;51777;53.570;9.984;2023-03-20T07:27:13;101420.34;;;8.64;100.00
65190;BME280;51777;53.570;9.984;2023-03-20T07:29:39;101423.03;;;8.62;100.00
65190;BME280;51777;53.570;9.984;2023-03-20T07:32:04;101419.63;;;8.62;100.00
65190;BME280;51777;53.570;9.984;2023-03-20T07:34:30;101418.25;;;8.69;100.00
65190;BME280;51777;53.570;9.984;2023-03-20T07:36:55;101418.94;;;8.71;100.00
65190;BME280;51777;53.570;9.984;2023-03-20T07:39:21;101426.06;;;8.67;100.00
65190;BME280;51777;53.570;9.984;2023-03-20T07:41:46;101429.13;;;8.61;100.00
65190;BME280;51777;53.570;9.984;2023-03-20T07:44:12;101429.59;;;8.66;100.00
65190;BME280;51777;53.570;9.984;2023-03-20T07:46:39;101427.50;;;8.82;100.00
65190;BME280;51777;53.570;9.984;2023-03-20T07:49:05;101433.69;;;8.80;100.00
65190;BME280;51777;53.570;9.984;2023-03-20T07:51:31;101415.66;;;8.91;100.00
65190;BME280;51777;53.570;9.984;2023-03-20T07:53:57;101418.34;;;8.90;100.00
65190;BME280;51777;53.570;9.984;2023-03-20T07:56:22;101414.63;;;8.82;100.00
65190;BME280;51777;53.570;9.984;2023-03-20T07:58:48;101419.78;;;8.94;100.00
65190;BME280;51777;53.570;9.984;2023-03-20T08:01:13;101422.56;;;9.02;100.00
65190;BME280;51777;53.570;9.984;2023-03-20T08:03:43;101423.50;;;9.01;100.00
65190;BME280;51777;53.570;9.984;2023-03-20T08:06:09;101423.38;;;9.13;100.00
65190;BME280;51777;53.570;9.984;2023-03-20T08:08:35;101423.75;;;8.87;100.00
65190;BME280;51777;53.570;9.984;2023-03-20T08:11:01;101428.66;;;9.01;100.00
65190;BME280;51777;53.570;9.984;2023-03-20T08:13:26;101428.78;;;8.99;100.00
65190;BME280;51777;53.570;9.984;2023-03-20T08:15:52;101431.94;;;9.14;100.00
65190;BME280;51777;53.570;9.984;2023-03-20T08:18:18;101438.75;;;9.04;100.00
65190;BME280;51777;53.570;9.984;2023-03-20T08:20:46;101443.44;;;8.88;100.00
65190;BME280;51777;53.570;9.984;2023-03-20T08:23:12;101448.59;;;8.99;100.00
65190;BME280;51777;53.570;9.984;2023-03-20T08:25:37;101450.00;;;9.03;100.00
65190;BME280;51777;53.570;9.984;2023-03-20T08:28:03;101457.41;;;9.07;100.00
65190;BME280;51777;53.570;9.984;2023-03-20T08:30:29;101451.06;;;9.00;100.00
65190;BME280;51777;53.570;9.984;2023-03-20T08:32:55;101461.13;;;9.15;100.00
65190;BME280;51777;53.570;9.984;2023-03-20T08:35:22;101459.72;;;8.88;100.00
65190;BME280;51777;53.570;9.984;2023-03-20T08:37:47;101450.13;;;9.01;100.00
65190;BME280;51777;53.570;9.984;2023-03-20T08:40:13;101453.53;;;9.02;100.00
65190;BME280;51777;53.570;9.984;2023-03-20T08:42:38;101457.16;;;8.99;100.00
65190;BME280;51777;53.570;9.984;2023-03-20T08:45:04;101463.63;;;8.94;100.00
65190;BME280;51777;53.570;9.984;2023-03-20T08:47:30;101465.97;;;8.97;100.00
65190;BME280;51777;53.570;9.984;2023-03-20T08:49:55;101452.25;;;9.07;100.00
65190;BME280;51777;53.570;9.984;2023-03-20T08:52:21;101461.13;;;9.15;100.00
65190;BME280;51777;53.570;9.984;2023-03-20T08:54:46;101461.47;;;9.32;100.00
65190;BME280;51777;53.570;9.984;2023-03-20T08:57:12;101457.59;;;9.27;100.00
65190;BME280;51777;53.570;9.984;2023-03-20T08:59:37;101458.06;;;9.43;100.00
65190;BME280;51777;53.570;9.984;2023-03-20T09:02:03;101458.22;;;9.30;100.00
65190;BME280;51777;53.570;9.984;2023-03-20T09:04:28;101458.66;;;9.35;100.00
65190;BME280;51777;53.570;9.984;2023-03-20T09:06:54;101452.69;;;9.12;100.00
65190;BME280;51777;53.570;9.984;2023-03-20T09:09:20;101464.06;;;9.21;100.00
65190;BME280;51777;53.570;9.984;2023-03-20T09:11:51;101456.09;;;9.13;100.00
65190;BME280;51777;53.570;9.984;2023-03-20T09:14:16;101454.22;;;9.26;100.00
65190;BME280;51777;53.570;9.984;2023-03-20T09:16:42;101450.78;;;9.37;100.00
65190;BME280;51777;53.570;9.984;2023-03-20T09:19:07;101459.34;;;9.37;100.00
65190;BME280;51777;53.570;9.984;2023-03-20T09:24:02;101456.31;;;9.32;100.00
65190;BME280;51777;53.570;9.984;2023-03-20T09:26:47;101463.44;;;9.40;100.00
65190;BME280;51777;53.570;9.984;2023-03-20T09:29:13;101459.84;;;9.31;100.00
65190;BME280;51777;53.570;9.984;2023-03-20T09:31:39;101451.75;;;9.36;100.00
65190;BME280;51777;53.570;9.984;2023-03-20T09:34:04;101447.75;;;9.43;100.00
65190;BME280;51777;53.570;9.984;2023-03-20T09:36:32;101459.34;;;9.37;100.00
65190;BME280;51777;53.570;9.984;2023-03-20T09:38:58;101458.38;;;9.61;100.00
65190;BME280;51777;53.570;9.984;2023-03-20T09:41:25;101459.97;;;9.73;100.00
65190;BME280;51777;53.570;9.984;2023-03-20T09:47:03;101471.78;;;9.87;100.00
65190;BME280;51777;53.570;9.984;2023-03-20T09:49:43;101471.38;;;9.70;100.00
65190;BME280;51777;53.570;9.984;2023-03-20T09:52:25;101467.03;;;9.71;100.00
65190;BME280;51777;53.570;9.984;2023-03-20T09:54:55;101471.22;;;9.83;100.00
65190;BME280;51777;53.570;9.984;2023-03-20T09:57:26;101469.75;;;9.69;100.00
65190;BME280;51777;53.570;9.984;2023-03-20T09:59:56;101473.38;;;9.67;100.00
65190;BME280;51777;53.570;9.984;2023-03-20T10:02:59;101478.84;;;9.85;100.00
65190;BME280;51777;53.570;9.984;2023-03-20T10:05:33;101471.34;;;9.82;100.00
65190;BME280;51777;53.570;9.984;2023-03-20T10:08:03;101476.38;;;9.83;100.00
65190;BME280;51777;53.570;9.984;2023-03-20T10:10:42;101478.28;;;9.81;100.00
65190;BME280;51777;53.570;9.984;2023-03-20T10:16:02;101481.69;;;9.82;100.00
65190;BME280;51777;53.570;9.984;2023-03-20T10:18:33;101471.28;;;9.61;100.00
65190;BME280;51777;53.570;9.984;2023-03-20T10:21:20;101477.56;;;9.79;100.00
65190;BME280;51777;53.570;9.984;2023-03-20T10:26:18;101474.47;;;9.96;100.00
65190;BME280;51777;53.570;9.984;2023-03-20T10:29:00;101465.31;;;9.92;100.00
65190;BME280;51777;53.570;9.984;2023-03-20T10:42:42;101455.59;;;9.85;100.00
65190;BME280;51777;53.570;9.984;2023-03-20T10:47:52;101455.00;;;9.92;100.00
65190;BME280;51777;53.570;9.984;2023-03-20T10:50:23;101464.44;;;9.71;100.00
65190;BME280;51777;53.570;9.984;2023-03-20T10:52:54;101450.84;;;9.69;100.00
65190;BME280;51777;53.570;9.984;2023-03-20T10:55:26;101455.84;;;9.82;100.00
65190;BME280;51777;53.570;9.984;2023-03-20T10:57:58;101449.63;;;9.84;100.00
65190;BME280;51777;53.570;9.984;2023-03-20T11:00:25;101441.47;;;9.68;100.00
65190;BME280;51777;53.570;9.984;2023-03-20T11:02:51;101436.34;;;10.10;100.00
65190;BME280;51777;53.570;9.984;2023-03-20T11:08:10;101444.72;;;10.34;100.00
65190;BME280;51777;53.570;9.984;2023-03-20T11:10:38;101445.59;;;10.44;100.00
65190;BME280;51777;53.570;9.984;2023-03-20T11:13:24;101449.69;;;10.26;100.00
65190;BME280;51777;53.570;9.984;2023-03-20T11:15:54;101445.94;;;10.19;100.00
65190;BME280;51777;53.570;9.984;2023-03-20T11:18:19;101445.72;;;10.22;100.00
65190;BME280;51777;53.570;9.984;2023-03-20T11:20:53;101444.53;;;10.15;100.00
65190;BME280;51777;53.570;9.984;2023-03-20T11:23:25;101441.44;;;10.32;100.00
65190;BME280;51777;53.570;9.984;2023-03-20T11:25:59;101446.44;;;10.13;100.00
65190;BME280;51777;53.570;9.984;2023-03-20T11:31:15;101442.75;;;10.15;100.00
65190;BME280;51777;53.570;9.984;2023-03-20T11:36:32;101429.38;;;10.21;100.00
65190;BME280;51777;53.570;9.984;2023-03-20T11:39:12;101424.44;;;10.18;100.00
65190;BME280;51777;53.570;9.984;2023-03-20T11:44:28;101426.31;;;10.16;100.00
65190;BME280;51777;53.570;9.984;2023-03-20T11:47:05;101427.56;;;10.01;100.00
65190;BME280;51777;53.570;9.984;2023-03-20T11:49:51;101424.19;;;10.00;100.00
65190;BME280;51777;53.570;9.984;2023-03-20T11:52:33;101432.81;;;10.11;100.00
65190;BME280;51777;53.570;9.984;2023-03-20T11:55:04;101424.88;;;10.02;100.00
65190;BME280;51777;53.570;9.984;2023-03-20T11:57:37;101417.53;;;10.19;100.00
65190;BME280;51777;53.570;9.984;2023-03-20T12:02:40;101420.63;;;10.01;100.00
65190;BME280;51777;53.570;9.984;2023-03-20T12:07:56;101418.09;;;10.22;100.00
65190;BME280;51777;53.570;9.984;2023-03-20T12:10:28;101418.22;;;10.21;100.00
65190;BME280;51777;53.570;9.984;2023-03-20T12:13:00;101425.28;;;10.19;100.00
65190;BME280;51777;53.570;9.984;2023-03-20T12:15:33;101423.22;;;10.34;100.00
65190;BME280;51777;53.570;9.984;2023-03-20T12:18:02;101425.25;;;10.30;100.00
65190;BME280;51777;53.570;9.984;2023-03-20T12:20:37;101424.38;;;10.09;100.00
65190;BME280;51777;53.570;9.984;2023-03-20T12:26:05;101424.59;;;10.38;100.00
65190;BME280;51777;53.570;9.984;2023-03-20T12:31:37;101415.53;;;10.43;100.00
65190;BME280;51777;53.570;9.984;2023-03-20T12:34:23;101419.91;;;10.52;100.00
65190;BME280;51777;53.570;9.984;2023-03-20T12:36:51;101417.16;;;10.75;100.00
65190;BME280;51777;53.570;9.984;2023-03-20T12:39:26;101426.88;;;10.82;100.00
65190;BME280;51777;53.570;9.984;2023-03-20T12:44:52;101421.31;;;10.66;100.00
65190;BME280;51777;53.570;9.984;2023-03-20T13:00:42;101408.41;;;12.04;100.00
65190;BME280;51777;53.570;9.984;2023-03-20T13:03:34;101397.06;;;12.05;100.00
65190;BME280;51777;53.570;9.984;2023-03-20T13:14:41;101389.00;;;11.70;100.00
65190;BME280;51777;53.570;9.984;2023-03-20T13:17:27;101390.09;;;11.48;100.00
65190;BME280;51777;53.570;9.984;2023-03-20T13:20:27;101382.88;;;11.42;100.00
65190;BME280;51777;53.570;9.984;2023-03-20T13:23:18;101375.66;;;11.45;100.00
65190;BME280;51777;53.570;9.984;2023-03-20T13:32:21;101374.34;;;10.92;100.00
65190;BME280;51777;53.570;9.984;2023-03-20T13:37:39;101380.19;;;11.03;100.00
65190;BME280;51777;53.570;9.984;2023-03-20T13:42:51;101371.19;;;10.88;100.00
65190;BME280;51777;53.570;9.984;2023-03-20T13:45:40;101373.63;;;10.80;100.00
65190;BME280;51777;53.570;9.984;2023-03-20T13:48:28;101371.38;;;10.66;100.00
65190;BME280;51777;53.570;9.984;2023-03-20T13:56:55;101363.19;;;10.61;100.00
65190;BME280;51777;53.570;9.984;2023-03-20T14:05:08;101365.56;;;10.73;100.00
65190;BME280;51777;53.570;9.984;2023-03-20T14:07:37;101369.78;;;10.74;100.00
65190;BME280;51777;53.570;9.984;2023-03-20T14:12:55;101362.50;;;10.58;100.00
65190;BME280;51777;53.570;9.984;2023-03-20T14:15:26;101357.75;;;10.64;100.00
65190;BME280;51777;53.570;9.984;2023-03-20T14:17:52;101367.00;;;10.66;100.00
65190;BME280;51777;53.570;9.984;2023-03-20T14:20:37;101360.66;;;10.70;100.00
65190;BME280;51777;53.570;9.984;2023-03-20T14:23:16;101360.91;;;10.67;100.00
65190;BME280;51777;53.570;9.984;2023-03-20T14:25:42;101351.81;;;10.73;100.00
65190;BME280;51777;53.570;9.984;2023-03-20T14:33:23;101360.88;;;10.57;100.00
65190;BME280;51777;53.570;9.984;2023-03-20T14:36:10;101361.03;;;10.66;100.00
65190;BME280;51777;53.570;9.984;2023-03-20T14:38:52;101351.09;;;10.61;100.00
65190;BME280;51777;53.570;9.984;2023-03-20T14:44:33;101365.28;;;10.67;100.00
65190;BME280;51777;53.570;9.984;2023-03-20T14:47:28;101359.66;;;10.62;100.00
65190;BME280;51777;53.570;9.984;2023-03-20T14:53:02;101360.44;;;10.52;100.00
65190;BME280;51777;53.570;9.984;2023-03-20T14:55:50;101353.72;;;10.40;100.00
65190;BME280;51777;53.570;9.984;2023-03-20T14:58:48;101358.25;;;10.48;100.00
65190;BME280;51777;53.570;9.984;2023-03-20T15:01:23;101364.75;;;10.42;100.00
65190;BME280;51777;53.570;9.984;2023-03-20T15:06:20;101360.00;;;10.47;100.00
65190;BME280;51777;53.570;9.984;2023-03-20T15:08:50;101356.22;;;10.51;100.00
65190;BME280;51777;53.570;9.984;2023-03-20T15:11:21;101355.31;;;10.62;100.00
65190;BME280;51777;53.570;9.984;2023-03-20T15:13:51;101358.56;;;10.54;100.00
65190;BME280;51777;53.570;9.984;2023-03-20T15:16:39;101357.50;;;10.36;100.00
65190;BME280;51777;53.570;9.984;2023-03-20T15:19:21;101359.81;;;10.39;100.00
65190;BME280;51777;53.570;9.984;2023-03-20T15:21:50;101363.38;;;10.38;100.00
65190;BME280;51777;53.570;9.984;2023-03-20T15:24:23;101365.25;;;10.36;100.00
65190;BME280;51777;53.570;9.984;2023-03-20T15:27:13;101362.63;;;10.26;100.00
65190;BME280;51777;53.570;9.984;2023-03-20T15:29:44;101367.97;;;10.35;100.00
65190;BME280;51777;53.570;9.984;2023-03-20T15:32:18;101362.00;;;10.34;100.00
65190;BME280;51777;53.570;9.984;2023-03-20T15:34:46;101357.25;;;10.39;100.00
65190;BME280;51777;53.570;9.984;2023-03-20T15:37:43;101357.22;;;10.29;100.00